Time;durP1;ratioP1;P1;durP2;ratioP2;P2;SDS_P1;SDS_P2;PMS_P1;PMS_P2;Temp;Humidity;BMP_temperature;BMP_pressure;BME280_temperature;BME280_humidity;BME280_pressure;Samples;Min_cycle;Max_cycle;Signal;HPM_P1;HPM_P2
2023/10/20 00:02:15;;;;;;;0.90;0.80;;;17.60;44.90;;;;;;6104993;23;20162;-87
2023/10/20 00:04:45;;;;;;;1.33;0.90;;;17.50;44.90;;;;;;6132218;23;20150;-88
2023/10/20 00:07:11;;;;;;;2.20;1.00;;;17.60;44.90;;;;;;6104350;23;20155;-88
2023/10/20 00:09:38;;;;;;;0.98;0.90;;;17.60;44.90;;;;;;6131066;23;20186;-85
2023/10/20 00:12:04;;;;;;;1.35;0.90;;;17.60;45.00;;;;;;6159393;23;20193;-88
2023/10/20 00:14:30;;;;;;;1.30;0.88;;;17.60;45.00;;;;;;6105146;23;20456;-86
2023/10/20 00:16:59;;;;;;;1.25;0.90;;;17.60;45.00;;;;;;6134366;23;20142;-88
2023/10/20 00:19:24;;;;;;;1.02;0.93;;;17.50;45.00;;;;;;6079910;23;20206;-87
2023/10/20 00:21:53;;;;;;;0.90;0.80;;;17.60;45.00;;;;;;6133177;23;20162;-87
2023/10/20 00:24:22;;;;;;;1.15;0.82;;;17.60;45.00;;;;;;6079963;23;20159;-88
2023/10/20 00:26:49;;;;;;;2.13;1.13;;;17.50;45.00;;;;;;6133063;23;20201;-87
2023/10/20 00:29:21;;;;;;;1.25;0.90;;;17.60;45.10;;;;;;6045428;23;20565;-87
2023/10/20 00:31:52;;;;;;;1.55;0.90;;;17.60;45.10;;;;;;6093895;23;20157;-87
2023/10/20 00:34:18;;;;;;;1.10;0.90;;;17.60;45.10;;;;;;6047106;23;20204;-87
2023/10/20 00:36:43;;;;;;;1.95;1.20;;;17.50;45.00;;;;;;6070146;23;20573;-86
2023/10/20 00:39:09;;;;;;;0.93;0.70;;;17.50;45.10;;;;;;6046219;23;20738;-86
2023/10/20 00:41:35;;;;;;;1.13;1.00;;;17.60;45.10;;;;;;6046283;23;20163;-87
2023/10/20 00:44:01;;;;;;;1.10;0.88;;;17.60;45.10;;;;;;6017489;23;20184;-88
2023/10/20 00:46:27;;;;;;;1.17;0.77;;;17.60;45.20;;;;;;6088412;23;20200;-86
2023/10/20 00:48:54;;;;;;;0.82;0.70;;;17.50;45.10;;;;;;6022173;23;20975;-88
2023/10/20 00:51:20;;;;;;;1.05;0.80;;;17.50;45.10;;;;;;6069995;23;20151;-86
2023/10/20 00:53:47;;;;;;;0.80;0.73;;;17.50;45.10;;;;;;6069232;23;20164;-88
2023/10/20 00:56:13;;;;;;;1.25;0.90;;;17.50;45.20;;;;;;6017381;23;20474;-88
2023/10/20 00:58:39;;;;;;;1.20;0.80;;;17.50;45.20;;;;;;6043348;23;20181;-86
2023/10/20 01:01:08;;;;;;;1.20;0.80;;;17.50;45.20;;;;;;6116503;23;20171;-87
2023/10/20 01:03:35;;;;;;;1.20;0.90;;;17.50;45.20;;;;;;6130629;23;20218;-87
2023/10/20 01:06:06;;;;;;;1.25;0.80;;;17.50;45.20;;;;;;6159174;23;20214;-89
2023/10/20 01:08:32;;;;;;;0.85;0.68;;;17.50;45.20;;;;;;6104384;23;20155;-87
2023/10/20 01:10:59;;;;;;;1.48;0.90;;;17.50;45.20;;;;;;6134183;23;20513;-85
2023/10/20 01:13:25;;;;;;;0.98;0.88;;;17.50;45.20;;;;;;6134176;23;20241;-88
2023/10/20 01:15:55;;;;;;;1.15;0.93;;;17.50;45.30;;;;;;6134106;23;20154;-86
2023/10/20 01:18:21;;;;;;;1.33;1.05;;;17.50;45.30;;;;;;6134524;23;20131;-88
2023/10/20 01:20:47;;;;;;;1.17;1.00;;;17.50;45.30;;;;;;6133965;23;20139;-88
2023/10/20 01:23:13;;;;;;;0.95;0.80;;;17.50;45.40;;;;;;6158693;23;20139;-88
2023/10/20 01:25:39;;;;;;;1.40;1.05;;;17.50;45.40;;;;;;6185283;23;20223;-85
2023/10/20 01:28:05;;;;;;;0.95;0.82;;;17.50;45.40;;;;;;6134514;23;20142;-88
2023/10/20 01:30:31;;;;;;;1.20;0.93;;;17.50;45.40;;;;;;6134046;23;20179;-85
2023/10/20 01:32:57;;;;;;;1.25;0.88;;;17.50;45.40;;;;;;6135419;23;20570;-88
2023/10/20 01:35:23;;;;;;;1.05;0.90;;;17.50;45.50;;;;;;6135857;23;20155;-86
2023/10/20 01:37:50;;;;;;;0.80;0.75;;;17.50;45.40;;;;;;6136001;23;20233;-86
2023/10/20 01:40:17;;;;;;;0.80;0.80;;;17.50;45.40;;;;;;6160770;23;20154;-87
2023/10/20 01:42:43;;;;;;;0.98;0.80;;;17.50;45.50;;;;;;6109932;23;20182;-88
2023/10/20 01:45:09;;;;;;;1.23;0.93;;;17.60;45.50;;;;;;6160653;23;20132;-85
2023/10/20 01:47:35;;;;;;;1.10;0.93;;;17.50;45.50;;;;;;6111344;23;20238;-86
2023/10/20 01:50:04;;;;;;;1.23;0.90;;;17.50;45.50;;;;;;6160559;23;20174;-87
2023/10/20 01:52:31;;;;;;;1.02;0.80;;;17.50;45.50;;;;;;6081490;23;20178;-87
2023/10/20 01:54:58;;;;;;;1.15;0.90;;;17.50;45.40;;;;;;6135346;23;20135;-85
2023/10/20 01:57:27;;;;;;;0.85;0.70;;;17.50;45.50;;;;;;6136157;23;20131;-88
2023/10/20 01:59:53;;;;;;;1.17;0.88;;;17.50;45.50;;;;;;6062305;23;20238;-87
2023/10/20 02:02:21;;;;;;;1.90;0.90;;;17.50;45.50;;;;;;6135708;23;20533;-85
2023/10/20 02:04:47;;;;;;;1.92;0.85;;;17.50;45.50;;;;;;6160574;23;20144;-87
2023/10/20 02:07:17;;;;;;;1.92;1.10;;;17.50;45.50;;;;;;6135381;23;20655;-89
2023/10/20 02:09:43;;;;;;;1.38;1.00;;;17.50;45.60;;;;;;6084097;23;20191;-87
2023/10/20 02:12:13;;;;;;;1.75;1.00;;;17.50;45.60;;;;;;6135779;23;20154;-88
2023/10/20 02:14:40;;;;;;;1.73;1.00;;;17.50;45.50;;;;;;6135854;23;20147;-86
2023/10/20 02:17:11;;;;;;;1.02;0.88;;;17.50;45.60;;;;;;6066410;23;20164;-85
2023/10/20 02:19:41;;;;;;;1.67;1.15;;;17.50;45.60;;;;;;6019735;23;20165;-85
2023/10/20 02:22:09;;;;;;;1.10;0.88;;;17.40;45.60;;;;;;6042285;23;20258;-87
2023/10/20 02:24:36;;;;;;;0.98;0.80;;;17.50;45.60;;;;;;6067316;23;20161;-86
2023/10/20 02:27:03;;;;;;;1.25;1.00;;;17.50;45.60;;;;;;6047458;23;20161;-86
2023/10/20 02:29:30;;;;;;;1.13;0.90;;;17.50;45.70;;;;;;6041285;23;20247;-86
2023/10/20 02:31:59;;;;;;;0.98;0.80;;;17.50;45.60;;;;;;6094628;23;20601;-86
2023/10/20 02:34:25;;;;;;;1.38;0.85;;;17.50;45.70;;;;;;6095255;23;20138;-85
2023/10/20 02:36:55;;;;;;;0.93;0.90;;;17.50;45.70;;;;;;6071095;23;20153;-85
2023/10/20 02:39:20;;;;;;;1.45;1.10;;;17.50;45.70;;;;;;6063986;23;20165;-86
2023/10/20 02:41:47;;;;;;;1.15;0.80;;;17.50;45.70;;;;;;6068846;23;20643;-86
2023/10/20 02:44:14;;;;;;;0.98;0.85;;;17.50;45.70;;;;;;6069689;23;20152;-85
2023/10/20 02:46:41;;;;;;;1.20;0.90;;;17.50;45.70;;;;;;6070404;23;20279;-88
2023/10/20 02:49:07;;;;;;;1.23;0.95;;;17.50;45.70;;;;;;6171801;23;20170;-85
2023/10/20 02:51:35;;;;;;;0.77;0.77;;;17.50;45.70;;;;;;6130648;23;20214;-87
2023/10/20 02:54:01;;;;;;;1.20;0.95;;;17.50;45.70;;;;;;6079653;23;20151;-85
2023/10/20 02:56:28;;;;;;;1.00;0.90;;;17.40;45.70;;;;;;6099372;23;20601;-86
2023/10/20 02:58:53;;;;;;;0.90;0.80;;;17.40;45.70;;;;;;6080722;23;20467;-87
2023/10/20 03:01:23;;;;;;;1.17;0.98;;;17.40;45.70;;;;;;6128232;23;20237;-86
2023/10/20 03:03:48;;;;;;;1.27;1.00;;;17.50;45.80;;;;;;6111219;23;20150;-87
2023/10/20 03:06:16;;;;;;;1.20;0.77;;;17.50;45.80;;;;;;6135129;23;20499;-87
2023/10/20 03:08:42;;;;;;;1.02;0.93;;;17.50;45.80;;;;;;6135362;23;20188;-87
2023/10/20 03:11:08;;;;;;;1.30;0.75;;;17.50;45.80;;;;;;6159789;23;20127;-87
2023/10/20 03:13:37;;;;;;;1.02;0.80;;;17.50;45.80;;;;;;6135562;23;20138;-86
2023/10/20 03:16:03;;;;;;;1.08;0.80;;;17.50;45.80;;;;;;6134973;23;20147;-85
2023/10/20 03:18:29;;;;;;;0.75;0.70;;;17.50;45.80;;;;;;6105488;23;20162;-86
2023/10/20 03:21:00;;;;;;;1.20;0.98;;;17.50;45.80;;;;;;6123015;23;20231;-86
2023/10/20 03:23:26;;;;;;;1.20;0.88;;;17.50;45.90;;;;;;6136090;23;20135;-86
2023/10/20 03:25:52;;;;;;;1.20;0.90;;;17.50;45.90;;;;;;6134609;23;20155;-87
2023/10/20 03:28:19;;;;;;;1.42;1.17;;;17.40;45.90;;;;;;6134933;23;20229;-87
2023/10/20 03:30:45;;;;;;;0.80;0.70;;;17.50;46.00;;;;;;6135251;23;20906;-86
2023/10/20 03:33:16;;;;;;;1.23;1.02;;;17.40;46.00;;;;;;6109722;23;20155;-86
2023/10/20 03:35:44;;;;;;;1.10;0.90;;;17.50;46.00;;;;;;6159849;23;20154;-86
2023/10/20 03:38:11;;;;;;;0.98;0.85;;;17.50;46.00;;;;;;6104534;23;20155;-87
2023/10/20 03:40:40;;;;;;;1.10;0.95;;;17.40;46.00;;;;;;6123278;23;20158;-85
2023/10/20 03:43:08;;;;;;;0.90;0.77;;;17.50;46.00;;;;;;6159653;23;20128;-86
2023/10/20 03:45:41;;;;;;;1.15;0.82;;;17.50;46.10;;;;;;6105899;23;20148;-85
2023/10/20 03:48:11;;;;;;;1.00;0.90;;;17.50;46.00;;;;;;6111595;23;20150;-86
2023/10/20 03:50:43;;;;;;;1.10;1.00;;;17.50;46.00;;;;;;6106570;23;20205;-86
2023/10/20 03:53:15;;;;;;;1.33;0.80;;;17.40;46.00;;;;;;6158692;23;20150;-86
2023/10/20 03:55:41;;;;;;;1.20;0.85;;;17.50;46.20;;;;;;6135343;23;20535;-86
2023/10/20 03:58:07;;;;;;;1.77;0.90;;;17.50;46.80;;;;;;6134374;23;20155;-86
2023/10/20 04:00:36;;;;;;;1.48;0.98;;;17.40;46.00;;;;;;6134339;23;20151;-87
2023/10/20 04:03:02;;;;;;;1.40;1.00;;;17.50;46.00;;;;;;6159029;23;20242;-86
2023/10/20 04:05:28;;;;;;;1.00;0.90;;;17.40;46.00;;;;;;6134701;23;20161;-87
2023/10/20 04:07:54;;;;;;;0.95;0.77;;;17.40;46.00;;;;;;6158771;23;20896;-87
2023/10/20 04:10:20;;;;;;;1.00;0.80;;;17.40;46.00;;;;;;6159013;23;20606;-86
2023/10/20 04:12:47;;;;;;;0.80;0.70;;;17.40;46.00;;;;;;6108653;23;20151;-85
2023/10/20 04:15:14;;;;;;;0.85;0.80;;;17.40;46.10;;;;;;6159139;23;20131;-85
2023/10/20 04:17:51;;;;;;;1.05;0.90;;;17.50;46.20;;;;;;6107734;23;20587;-86
2023/10/20 04:20:20;;;;;;;0.98;0.70;;;17.40;46.10;;;;;;6059134;23;20209;-85
2023/10/20 04:22:49;;;;;;;0.82;0.82;;;17.40;46.10;;;;;;6106312;23;20151;-86
2023/10/20 04:25:17;;;;;;;1.10;1.00;;;17.40;46.10;;;;;;6105352;23;20159;-87
2023/10/20 04:28:00;;;;;;;0.80;0.73;;;17.40;46.10;;;;;;6132268;23;20147;-86
2023/10/20 04:44:19;;;;;;;0.90;0.73;;;17.40;46.20;;;;;;6161654;23;20528;-86
2023/10/20 04:54:45;;;;;;;1.15;0.88;;;17.40;46.20;;;;;;6133792;23;20174;-87
2023/10/20 05:08:04;;;;;;;1.83;0.90;;;17.50;46.30;;;;;;6139798;23;20162;-86
2023/10/20 05:10:30;;;;;;;1.23;0.73;;;17.40;46.30;;;;;;6158409;23;20173;-85
2023/10/20 05:12:56;;;;;;;2.15;1.00;;;17.40;46.30;;;;;;6134113;23;20150;-85
2023/10/20 05:15:21;;;;;;;0.82;0.70;;;17.50;46.30;;;;;;6158631;23;20219;-88
2023/10/20 05:17:50;;;;;;;1.33;0.90;;;17.40;47.00;;;;;;6109474;23;20147;-85
2023/10/20 05:20:20;;;;;;;1.35;0.70;;;17.30;46.30;;;;;;6134543;23;20151;-88
2023/10/20 05:22:46;;;;;;;0.65;0.65;;;17.40;46.40;;;;;;6108961;23;20179;-86
2023/10/20 05:25:12;;;;;;;2.20;0.82;;;17.40;46.40;;;;;;6104339;23;20206;-85
2023/10/20 05:27:41;;;;;;;0.95;0.77;;;17.40;46.40;;;;;;6130504;23;20178;-87
2023/10/20 05:30:08;;;;;;;0.98;0.88;;;17.40;46.40;;;;;;6134732;23;20163;-86
2023/10/20 05:32:34;;;;;;;1.00;0.73;;;17.40;46.40;;;;;;6134254;23;20142;-86
2023/10/20 05:35:00;;;;;;;1.33;1.00;;;17.40;46.40;;;;;;6134086;23;20475;-87
2023/10/20 05:37:27;;;;;;;1.27;1.00;;;17.40;46.40;;;;;;6133826;23;20205;-85
2023/10/20 05:39:53;;;;;;;1.17;0.73;;;17.40;46.40;;;;;;6084069;23;20241;-87
2023/10/20 05:42:23;;;;;;;0.65;0.60;;;17.40;46.40;;;;;;6104643;23;20182;-87
2023/10/20 05:45:10;;;;;;;0.70;0.63;;;17.40;46.40;;;;;;6044077;23;20244;-86
2023/10/20 05:47:39;;;;;;;1.75;1.00;;;17.50;46.30;;;;;;6018776;23;20201;-86
2023/10/20 05:50:08;;;;;;;1.52;1.00;;;17.50;46.20;;;;;;6040692;23;20271;-85
2023/10/20 05:52:41;;;;;;;0.70;0.60;;;17.50;46.20;;;;;;6037551;23;20178;-86
2023/10/20 05:55:13;;;;;;;0.85;0.60;;;17.50;46.20;;;;;;6068842;23;20533;-85
2023/10/20 05:57:39;;;;;;;1.02;0.80;;;17.50;46.20;;;;;;6069552;23;20220;-86
2023/10/20 06:00:08;;;;;;;0.93;0.60;;;17.50;46.10;;;;;;6021788;23;20156;-86
2023/10/20 06:02:34;;;;;;;1.00;0.73;;;17.60;46.10;;;;;;6069646;23;20228;-86
2023/10/20 06:05:03;;;;;;;0.70;0.68;;;17.60;46.10;;;;;;6040660;23;20598;-86
2023/10/20 06:07:32;;;;;;;0.68;0.68;;;17.60;46.10;;;;;;6035555;23;20194;-87
2023/10/20 06:10:00;;;;;;;0.77;0.50;;;17.60;46.00;;;;;;5995808;23;20204;-86
2023/10/20 06:12:27;;;;;;;0.60;0.50;;;17.60;46.00;;;;;;6060951;23;20133;-86
2023/10/20 06:14:52;;;;;;;0.82;0.60;;;17.60;46.00;;;;;;6077037;23;20157;-85
2023/10/20 06:17:25;;;;;;;0.40;0.40;;;17.60;45.90;;;;;;6125837;23;20139;-87
2023/10/20 06:19:50;;;;;;;0.88;0.77;;;17.60;46.00;;;;;;6089129;23;20165;-87
2023/10/20 06:22:20;;;;;;;0.55;0.50;;;17.60;46.00;;;;;;6109778;23;20175;-85
2023/10/20 06:24:50;;;;;;;0.68;0.60;;;17.60;46.00;;;;;;6089949;23;20210;-86
2023/10/20 06:27:20;;;;;;;0.90;0.70;;;17.60;46.00;;;;;;6164965;23;20135;-84
2023/10/20 06:30:05;;;;;;;0.50;0.50;;;17.60;46.00;;;;;;6138211;23;20307;-87
2023/10/20 06:32:42;;;;;;;0.65;0.57;;;17.70;46.00;;;;;;6074897;23;20678;-86
2023/10/20 06:35:09;;;;;;;0.85;0.52;;;17.60;45.90;;;;;;5991941;23;20252;-85
2023/10/20 06:37:53;;;;;;;0.63;0.52;;;17.60;45.90;;;;;;6012837;23;20154;-85
2023/10/20 06:40:20;;;;;;;0.70;0.60;;;17.60;45.90;;;;;;5971175;23;20181;-86
2023/10/20 06:42:48;;;;;;;0.40;0.40;;;17.60;45.90;;;;;;5964862;23;20241;-87
2023/10/20 06:45:14;;;;;;;0.52;0.52;;;17.60;46.00;;;;;;5990245;23;20242;-87
2023/10/20 06:47:40;;;;;;;0.88;0.63;;;17.70;46.10;;;;;;6013083;23;20194;-86
2023/10/20 06:50:43;;;;;;;0.80;0.60;;;17.60;46.00;;;;;;5989635;23;20194;-86
2023/10/20 06:53:08;;;;;;;0.75;0.60;;;17.60;46.00;;;;;;5960984;24;20159;-84
2023/10/20 06:55:42;;;;;;;0.60;0.60;;;17.60;46.00;;;;;;5960571;24;20250;-87
2023/10/20 06:58:09;;;;;;;0.73;0.63;;;17.60;46.10;;;;;;5989182;23;20665;-85
2023/10/20 07:00:36;;;;;;;0.75;0.55;;;17.60;46.10;;;;;;5966336;23;20623;-85
2023/10/20 07:03:02;;;;;;;0.65;0.60;;;17.60;46.20;;;;;;5986626;23;20588;-84
2023/10/20 07:05:27;;;;;;;0.68;0.60;;;17.50;46.20;;;;;;5998028;23;20197;-85
2023/10/20 07:08:00;;;;;;;0.77;0.63;;;17.60;46.30;;;;;;6018768;23;20167;-84
2023/10/20 07:10:27;;;;;;;0.65;0.52;;;17.60;46.40;;;;;;5975149;23;20184;-85
2023/10/20 07:13:00;;;;;;;0.55;0.55;;;17.50;46.30;;;;;;6021186;23;20138;-84
2023/10/20 07:15:26;;;;;;;0.50;0.50;;;17.50;47.00;;;;;;6020708;23;20300;-85
2023/10/20 07:17:54;;;;;;;0.50;0.50;;;17.50;46.40;;;;;;6019347;23;20150;-85
2023/10/20 07:20:20;;;;;;;0.60;0.40;;;17.50;46.40;;;;;;5971050;23;20158;-85
2023/10/20 07:22:46;;;;;;;0.57;0.40;;;17.50;46.50;;;;;;6017583;23;20190;-84
2023/10/20 07:25:21;;;;;;;0.60;0.55;;;17.50;46.50;;;;;;5990911;23;20218;-85
2023/10/20 07:27:57;;;;;;;0.40;0.40;;;17.50;46.50;;;;;;5983035;24;20162;-85
2023/10/20 07:30:23;;;;;;;0.70;0.40;;;17.50;46.60;;;;;;5992817;23;20630;-86
2023/10/20 07:32:51;;;;;;;0.68;0.50;;;17.60;46.50;;;;;;6043192;23;20154;-86
2023/10/20 07:35:17;;;;;;;0.50;0.50;;;17.50;46.50;;;;;;5990585;23;20158;-87
2023/10/20 07:37:49;;;;;;;0.50;0.50;;;17.50;46.50;;;;;;6041721;23;20218;-88
2023/10/20 07:40:18;;;;;;;0.68;0.60;;;17.60;46.60;;;;;;5992270;23;20225;-86
2023/10/20 07:42:46;;;;;;;0.52;0.50;;;17.50;46.60;;;;;;6017676;23;20248;-86
2023/10/20 07:45:12;;;;;;;0.60;0.60;;;17.60;46.60;;;;;;5991168;23;20812;-86
2023/10/20 07:47:37;;;;;;;0.43;0.43;;;17.50;46.50;;;;;;6039745;23;20196;-86
2023/10/20 07:50:04;;;;;;;0.73;0.43;;;17.60;46.60;;;;;;6045168;23;20293;-88
2023/10/20 07:52:30;;;;;;;0.65;0.50;;;17.60;46.60;;;;;;6083944;23;20147;-86
2023/10/20 07:55:02;;;;;;;0.50;0.50;;;17.50;46.50;;;;;;6137941;23;20466;-87
2023/10/20 07:57:30;;;;;;;0.32;0.32;;;17.60;46.60;;;;;;6108358;23;20151;-86
2023/10/20 07:59:57;;;;;;;0.90;0.50;;;17.60;46.60;;;;;;6094827;23;20276;-86
2023/10/20 08:02:24;;;;;;;0.40;0.40;;;17.60;46.50;;;;;;6081429;23;20213;-85
2023/10/20 08:04:50;;;;;;;0.50;0.50;;;17.60;46.50;;;;;;6135854;23;20229;-86
2023/10/20 08:07:16;;;;;;;0.73;0.50;;;17.60;46.60;;;;;;6136574;23;20146;-86
2023/10/20 08:09:43;;;;;;;1.08;0.50;;;17.60;46.60;;;;;;6160260;23;20166;-86
2023/10/20 08:12:09;;;;;;;0.90;0.60;;;17.60;46.60;;;;;;6081124;23;20620;-86
2023/10/20 08:14:35;;;;;;;0.40;0.40;;;17.60;46.70;;;;;;6127722;23;20206;-86
2023/10/20 08:17:03;;;;;;;0.43;0.40;;;17.60;46.70;;;;;;6135184;23;20578;-85
2023/10/20 08:19:31;;;;;;;0.55;0.40;;;17.60;46.70;;;;;;6106474;23;20152;-85
2023/10/20 08:21:59;;;;;;;0.40;0.40;;;17.60;47.10;;;;;;6173944;23;20597;-86
2023/10/20 08:24:25;;;;;;;0.50;0.50;;;17.50;46.70;;;;;;6135985;23;20502;-86
2023/10/20 08:26:52;;;;;;;0.40;0.40;;;17.60;46.80;;;;;;6135126;23;20163;-86
2023/10/20 08:29:18;;;;;;;0.82;0.55;;;17.60;46.80;;;;;;6160699;23;20162;-85
2023/10/20 08:31:45;;;;;;;0.60;0.40;;;17.60;46.70;;;;;;6112019;23;20178;-86
2023/10/20 08:34:10;;;;;;;0.52;0.43;;;17.60;46.70;;;;;;6131732;23;20223;-85
2023/10/20 08:36:37;;;;;;;0.50;0.32;;;17.50;46.70;;;;;;6131283;23;20170;-86
2023/10/20 08:39:13;;;;;;;0.30;0.30;;;17.60;46.90;;;;;;6159643;23;20478;-84
2023/10/20 08:41:40;;;;;;;0.40;0.40;;;17.60;47.00;;;;;;6109048;23;20534;-85
2023/10/20 08:44:06;;;;;;;0.65;0.45;;;17.70;47.20;;;;;;6105899;23;20148;-85
2023/10/20 08:46:31;;;;;;;0.40;0.40;;;17.70;47.10;;;;;;6130065;23;20654;-85
2023/10/20 08:48:58;;;;;;;0.40;0.40;;;17.70;47.00;;;;;;6189964;23;20186;-86
2023/10/20 08:51:24;;;;;;;0.32;0.32;;;17.70;47.00;;;;;;6110337;23;20182;-86
2023/10/20 08:53:50;;;;;;;0.40;0.40;;;17.70;46.90;;;;;;6161166;23;20150;-86
2023/10/20 08:56:15;;;;;;;0.45;0.40;;;17.70;47.00;;;;;;6185892;23;20217;-86
2023/10/20 08:58:44;;;;;;;0.77;0.50;;;17.70;46.90;;;;;;6107851;23;20225;-85
2023/10/20 09:01:10;;;;;;;0.40;0.40;;;17.70;46.90;;;;;;6135419;23;20135;-86
2023/10/20 09:03:44;;;;;;;0.47;0.47;;;17.70;46.90;;;;;;6160311;23;20161;-86
2023/10/20 09:06:14;;;;;;;0.35;0.35;;;17.70;46.90;;;;;;6160110;23;20142;-85
2023/10/20 09:08:41;;;;;;;0.40;0.40;;;17.70;46.90;;;;;;6108974;23;20258;-86
2023/10/20 09:11:08;;;;;;;0.45;0.45;;;17.70;46.90;;;;;;6135859;23;20201;-86
2023/10/20 09:13:36;;;;;;;0.80;0.40;;;17.70;46.90;;;;;;6135866;23;20185;-86
2023/10/20 09:16:03;;;;;;;0.30;0.30;;;17.60;46.90;;;;;;6135924;23;20555;-87
2023/10/20 09:18:31;;;;;;;0.40;0.40;;;17.70;47.10;;;;;;6105789;23;20207;-86
2023/10/20 09:21:04;;;;;;;0.57;0.40;;;17.60;47.00;;;;;;6094681;23;20147;-87
2023/10/20 09:23:30;;;;;;;0.32;0.32;;;17.60;47.10;;;;;;6160400;23;20210;-86
2023/10/20 09:26:00;;;;;;;0.35;0.35;;;17.60;47.10;;;;;;6186125;23;20185;-87
2023/10/20 09:28:25;;;;;;;0.35;0.35;;;17.60;47.10;;;;;;6081097;23;20167;-86
2023/10/20 09:30:53;;;;;;;0.40;0.40;;;17.60;47.20;;;;;;6133981;23;20178;-86
2023/10/20 09:33:20;;;;;;;0.30;0.30;;;17.60;47.30;;;;;;6159346;23;20518;-85
2023/10/20 09:35:46;;;;;;;0.60;0.55;;;17.60;47.50;;;;;;6135167;23;20151;-85
2023/10/20 09:38:16;;;;;;;0.70;0.40;;;17.60;47.40;;;;;;6134690;23;20155;-85
2023/10/20 09:40:42;;;;;;;0.57;0.43;;;17.60;47.30;;;;;;6082317;23;20491;-86
2023/10/20 09:43:13;;;;;;;0.40;0.30;;;17.60;47.30;;;;;;6129937;23;20139;-86
2023/10/20 09:45:42;;;;;;;0.45;0.45;;;17.70;47.40;;;;;;6103313;23;20267;-86
2023/10/20 09:48:15;;;;;;;0.40;0.40;;;17.70;47.40;;;;;;6134782;23;20139;-87
2023/10/20 09:50:42;;;;;;;0.45;0.43;;;17.70;47.30;;;;;;6159179;23;20175;-87
2023/10/20 09:53:09;;;;;;;1.05;0.50;;;17.70;47.30;;;;;;6158964;23;20170;-86
2023/10/20 09:55:35;;;;;;;0.50;0.45;;;17.70;47.30;;;;;;6084039;23;20170;-85
2023/10/20 09:58:02;;;;;;;1.65;0.47;;;17.70;47.30;;;;;;6117100;23;20214;-88
2023/10/20 10:00:30;;;;;;;0.68;0.30;;;17.70;47.40;;;;;;6192809;23;20139;-88
2023/10/20 10:02:59;;;;;;;0.40;0.40;;;17.70;47.50;;;;;;6172567;23;20182;-86
2023/10/20 10:05:25;;;;;;;0.50;0.35;;;17.70;47.60;;;;;;6148457;23;20139;-88
2023/10/20 10:08:11;;;;;;;1.38;0.40;;;17.70;47.60;;;;;;6122567;23;20190;-87
2023/10/20 10:10:38;;;;;;;2.47;0.52;;;17.70;47.60;;;;;;6074008;23;20183;-86
2023/10/20 10:13:05;;;;;;;0.55;0.40;;;17.70;47.40;;;;;;6170092;23;20131;-88
2023/10/20 10:15:37;;;;;;;1.33;0.40;;;17.70;47.30;;;;;;6082292;23;20535;-85
2023/10/20 10:18:19;;;;;;;1.02;0.40;;;17.70;47.40;;;;;;6161789;23;20135;-86
2023/10/20 10:20:51;;;;;;;1.85;0.40;;;17.70;47.30;;;;;;6136280;23;20166;-87
2023/10/20 10:23:25;;;;;;;0.63;0.43;;;17.70;47.40;;;;;;6057450;23;20187;-88
2023/10/20 10:25:54;;;;;;;0.50;0.50;;;17.70;47.40;;;;;;6133755;23;20154;-87
2023/10/20 10:28:20;;;;;;;1.30;0.47;;;17.80;47.40;;;;;;6081157;23;20159;-86
2023/10/20 10:30:50;;;;;;;0.40;0.40;;;17.70;47.40;;;;;;6107395;23;20214;-87
2023/10/20 10:33:21;;;;;;;0.40;0.30;;;17.70;47.30;;;;;;6160207;23;20127;-88
2023/10/20 10:35:46;;;;;;;0.45;0.35;;;17.70;47.30;;;;;;6110030;23;20148;-89
2023/10/20 10:38:23;;;;;;;1.13;0.30;;;17.70;47.30;;;;;;6139771;23;20137;-86
2023/10/20 10:40:52;;;;;;;0.40;0.40;;;17.70;47.30;;;;;;6101701;23;20250;-86
2023/10/20 10:43:21;;;;;;;0.30;0.30;;;17.70;47.30;;;;;;6075662;23;20166;-85
2023/10/20 10:45:52;;;;;;;0.50;0.30;;;17.70;47.40;;;;;;6099985;23;20184;-88
2023/10/20 10:48:18;;;;;;;0.55;0.40;;;17.70;47.40;;;;;;6075993;23;20239;-87
2023/10/20 10:50:46;;;;;;;0.95;0.40;;;17.70;47.40;;;;;;6099472;23;20688;-87
2023/10/20 10:53:15;;;;;;;0.98;0.40;;;17.70;47.40;;;;;;6036691;23;20170;-89
2023/10/20 10:55:41;;;;;;;0.60;0.45;;;17.70;47.40;;;;;;5941279;23;20162;-90
2023/10/20 10:58:09;;;;;;;0.45;0.45;;;17.80;47.40;;;;;;5986088;23;20309;-90
2023/10/20 11:00:35;;;;;;;0.40;0.40;;;17.80;47.30;;;;;;6010091;23;20181;-89
2023/10/20 11:03:02;;;;;;;0.75;0.38;;;17.70;47.30;;;;;;5985863;23;20159;-88
2023/10/20 11:05:37;;;;;;;0.50;0.40;;;17.70;47.30;;;;;;5961686;23;20164;-92
2023/10/20 11:08:05;;;;;;;0.98;0.32;;;17.70;47.30;;;;;;5909075;23;20168;-90
2023/10/20 11:10:34;;;;;;;0.45;0.30;;;17.80;47.30;;;;;;5973625;23;20630;-86
2023/10/20 11:13:05;;;;;;;0.50;0.32;;;17.80;47.20;;;;;;6018923;23;20157;-87
2023/10/20 11:15:31;;;;;;;0.93;0.32;;;17.80;47.10;;;;;;6066228;23;20677;-86
2023/10/20 11:17:59;;;;;;;0.73;0.40;;;17.80;47.10;;;;;;6070638;23;20155;-87
2023/10/20 11:20:26;;;;;;;0.47;0.30;;;17.80;47.00;;;;;;6070312;23;20577;-87
2023/10/20 11:22:53;;;;;;;0.65;0.50;;;17.90;47.10;;;;;;6041862;23;20157;-88
2023/10/20 11:25:27;;;;;;;0.32;0.30;;;17.80;47.00;;;;;;6039701;23;20160;-88
2023/10/20 11:27:54;;;;;;;0.65;0.40;;;17.90;47.00;;;;;;6070642;23;20141;-88
2023/10/20 11:30:27;;;;;;;0.77;0.43;;;17.80;46.90;;;;;;6104426;23;20193;-87
2023/10/20 11:32:54;;;;;;;0.65;0.28;;;17.80;46.90;;;;;;6134997;23;20233;-88
2023/10/20 11:35:21;;;;;;;0.32;0.30;;;17.80;46.90;;;;;;6159513;23;20135;-88
2023/10/20 11:37:48;;;;;;;1.00;0.47;;;17.80;46.90;;;;;;6135313;23;20153;-86
2023/10/20 11:40:15;;;;;;;0.50;0.30;;;17.80;47.60;;;;;;6159703;23;20163;-85
2023/10/20 11:42:42;;;;;;;0.38;0.38;;;17.60;46.90;;;;;;6135042;23;20131;-88
2023/10/20 11:45:11;;;;;;;0.80;0.40;;;17.70;46.90;;;;;;6104714;23;20155;-86
2023/10/20 11:47:40;;;;;;;1.45;0.40;;;17.80;46.90;;;;;;6131147;23;20202;-86
2023/10/20 11:50:09;;;;;;;0.60;0.40;;;17.80;46.90;;;;;;6135946;23;20170;-88
2023/10/20 11:52:37;;;;;;;0.65;0.40;;;17.80;46.80;;;;;;6086043;23;20598;-86
2023/10/20 11:55:05;;;;;;;0.40;0.30;;;17.80;46.70;;;;;;6104874;23;20498;-86
2023/10/20 11:57:31;;;;;;;0.35;0.30;;;17.80;46.70;;;;;;6155347;23;20135;-87
2023/10/20 11:59:57;;;;;;;0.40;0.32;;;17.80;46.60;;;;;;6135311;23;20145;-88
2023/10/20 12:02:23;;;;;;;0.40;0.40;;;17.80;46.50;;;;;;6110541;23;20159;-89
2023/10/20 12:04:51;;;;;;;0.30;0.30;;;17.80;46.50;;;;;;6134590;23;20590;-87
2023/10/20 12:07:22;;;;;;;0.30;0.30;;;17.80;46.40;;;;;;6105026;23;20160;-87
2023/10/20 12:09:50;;;;;;;0.60;0.40;;;17.80;46.30;;;;;;6109731;23;20647;-88
2023/10/20 12:12:19;;;;;;;0.40;0.40;;;17.80;46.30;;;;;;6135747;23;20197;-87
2023/10/20 12:14:48;;;;;;;0.40;0.40;;;17.80;46.30;;;;;;6137849;23;20138;-89
2023/10/20 12:17:15;;;;;;;0.40;0.38;;;17.70;46.20;;;;;;6112653;23;20143;-86
2023/10/20 12:19:40;;;;;;;0.30;0.30;;;17.80;46.50;;;;;;6113485;23;20221;-86
2023/10/20 12:22:10;;;;;;;0.40;0.38;;;17.70;46.20;;;;;;6141949;23;20139;-87
2023/10/20 12:24:39;;;;;;;0.43;0.40;;;17.80;46.30;;;;;;6083759;23;20567;-89
2023/10/20 12:27:09;;;;;;;0.40;0.28;;;17.70;46.20;;;;;;6136978;23;20162;-88
2023/10/20 12:29:40;;;;;;;0.40;0.30;;;17.80;46.90;;;;;;6084610;23;20183;-87
2023/10/20 12:32:12;;;;;;;1.27;0.25;;;17.80;46.40;;;;;;6058661;23;20162;-87
2023/10/20 12:34:38;;;;;;;0.70;0.40;;;17.80;46.10;;;;;;6129110;23;20151;-89
2023/10/20 12:37:05;;;;;;;0.38;0.30;;;17.90;46.20;;;;;;6134955;23;20998;-88
2023/10/20 12:39:48;;;;;;;0.30;0.30;;;17.80;46.10;;;;;;6158888;23;20504;-85
2023/10/20 12:42:14;;;;;;;0.45;0.40;;;17.80;46.20;;;;;;6080669;23;20175;-86
2023/10/20 12:44:39;;;;;;;0.30;0.30;;;17.80;46.20;;;;;;6131566;23;20147;-86
2023/10/20 12:47:06;;;;;;;0.50;0.40;;;17.80;46.20;;;;;;6104245;23;20198;-87
2023/10/20 12:49:42;;;;;;;0.32;0.30;;;17.80;46.20;;;;;;6099994;23;20193;-86
2023/10/20 12:52:09;;;;;;;1.48;0.32;;;17.80;46.20;;;;;;6081046;23;20150;-84
2023/10/20 12:54:36;;;;;;;0.40;0.40;;;17.80;46.20;;;;;;6182032;23;20159;-88
2023/10/20 12:57:07;;;;;;;0.30;0.30;;;17.80;46.20;;;;;;6107729;23;20163;-86
2023/10/20 12:59:33;;;;;;;0.20;0.20;;;17.70;46.20;;;;;;6101850;23;20164;-88
2023/10/20 13:02:04;;;;;;;0.38;0.30;;;17.70;46.30;;;;;;6112017;23;20147;-87
2023/10/20 13:04:33;;;;;;;0.50;0.28;;;17.70;46.30;;;;;;6160039;23;20146;-87
2023/10/20 13:07:01;;;;;;;0.40;0.30;;;17.70;46.30;;;;;;6161966;23;20157;-86
2023/10/20 13:09:27;;;;;;;0.30;0.30;;;17.70;47.00;;;;;;6135912;23;20178;-85
2023/10/20 13:11:57;;;;;;;0.22;0.22;;;17.70;46.30;;;;;;6112927;23;20447;-86
2023/10/20 13:14:28;;;;;;;0.32;0.30;;;17.80;46.30;;;;;;6059343;23;20155;-84
2023/10/20 13:16:54;;;;;;;1.05;0.50;;;17.70;46.20;;;;;;6115095;23;20143;-85
2023/10/20 13:19:20;;;;;;;0.43;0.28;;;17.70;46.20;;;;;;6135536;23;20304;-85
2023/10/20 13:21:49;;;;;;;0.28;0.28;;;17.70;46.20;;;;;;6158376;23;20170;-85
2023/10/20 13:24:14;;;;;;;0.38;0.38;;;17.80;46.20;;;;;;6055735;23;20163;-85
2023/10/20 13:26:42;;;;;;;1.27;0.30;;;17.70;46.20;;;;;;6130514;23;20173;-84